Terminal Aerodrome Forecast
Issued by NWS Shreveport, LA

Current Version | Previous Version | Text Only | Print | Product List | Glossary On
Versions: 1 2 3 4 5 6 7 8 9 10 11 12
000
FTUS44 KSHV 141100
TAFELD
TAF
KELD 141122Z 1412/1512 19005KT P6SM SKC
     FM141600 24008KT P6SM SCT040
     FM142300 26006KT P6SM VCTS BKN070CB
      TEMPO 1501/1505 2SM TSRA BR OVC040CB=

USA.gov is the U.S. government's official web portal to all federal, state and local government web resources and services.